Terminal Aerodrome Forecast
Issued by NWS Topeka, KS

Home | Current Version | Previous Version | Graphics & Text | Print | Product List | Glossary On
Versions: 1 2 3 4 5 6 7 8 9 10 11 12 13 14 15 16 17 18 19 20
000
FTUS43 KTOP 290400 AAB
TAFTOP
TAF AMD
KTOP 290410Z 2904/2924 13007KT P6SM SCT250
     FM290500 13007KT P6SM -SHRA VCTS SCT035CB BKN100
     FM291000 20009KT P6SM VCTS BKN035CB=

USA.gov is the U.S. government's official web portal to all federal, state and local government web resources and services.